Brummitt, Arkansas
Current Conditions -  °F | °C
As of 8:35 AM on Tuesday 21 Oct 2014 (Local Time) from KSGT Reporting Station
Clear Clear  
Wind Chill: 57°   Ceiling: Unl
Heat Index: 57°   Visibility: 5mi
Dew Point: 55°   Wind: 6mph
Humidity: 94%   Direction: 330°NNW
Pressure: 30.11"   Gusts: NA
Location:  34.3615°N, 91.5213°W
Report Text: KSGT 211335Z AUTO 33005KT 5SM CLR 14/13 A3011 RMK AO1
Loading
Personal Weather Stations






























Interactive Weather Map
Tropical Storm Tracking
New forecast layout! Learn more

10-Day Weather Forecast

Advertisements
Track Severe Weather on mobile